Time;durP1;ratioP1;P1;durP2;ratioP2;P2;SDS_P1;SDS_P2;PMS_P1;PMS_P2;Temp;Humidity;BMP_temperature;BMP_pressure;BME280_temperature;BME280_humidity;BME280_pressure;Samples;Min_cycle;Max_cycle;Signal;HPM_P1;HPM_P2
2023/10/19 00:00:57;;;;;;;8.50;6.30;;;11.50;99.90;;;;;;5054144;28;20621;-79
2023/10/19 00:03:24;;;;;;;9.27;6.90;;;11.50;99.90;;;;;;5043403;28;20320;-80
2023/10/19 00:05:49;;;;;;;7.63;6.23;;;11.50;99.90;;;;;;5055895;28;20535;-80
2023/10/19 00:08:20;;;;;;;7.53;6.80;;;11.50;99.90;;;;;;5056340;28;20178;-80
2023/10/19 00:10:50;;;;;;;11.13;6.23;;;11.60;99.90;;;;;;5055612;28;20183;-79
2023/10/19 00:13:18;;;;;;;8.50;6.90;;;11.50;99.90;;;;;;5055279;28;20219;-80
2023/10/19 00:15:48;;;;;;;9.63;6.70;;;11.50;99.90;;;;;;5054560;28;20187;-80
2023/10/19 00:23:18;;;;;;;9.30;7.17;;;11.60;99.90;;;;;;5055938;28;20196;-80
2023/10/19 00:25:49;;;;;;;9.67;6.67;;;11.60;99.90;;;;;;5055455;28;20526;-80
2023/10/19 00:28:17;;;;;;;7.53;6.23;;;11.60;99.90;;;;;;5054052;28;20167;-80
2023/10/19 00:30:43;;;;;;;9.67;7.03;;;11.60;99.90;;;;;;5055689;28;20563;-79
2023/10/19 00:33:26;;;;;;;8.40;6.23;;;11.60;99.90;;;;;;5055700;28;20186;-79
2023/10/19 00:36:13;;;;;;;7.57;6.77;;;11.60;99.90;;;;;;5056035;28;20600;-80
2023/10/19 00:38:39;;;;;;;11.57;7.03;;;11.70;99.90;;;;;;5056606;28;20183;-80
2023/10/19 00:43:42;;;;;;;7.70;6.63;;;11.70;99.90;;;;;;5056172;28;20196;-79
2023/10/19 00:48:49;;;;;;;9.83;7.13;;;11.70;99.90;;;;;;5055421;28;20167;-80
2023/10/19 00:53:58;;;;;;;9.03;7.20;;;11.80;99.90;;;;;;5056117;28;20789;-79
2023/10/19 00:56:32;;;;;;;9.50;6.97;;;11.80;99.90;;;;;;5055678;28;20152;-80
2023/10/19 00:59:00;;;;;;;10.37;7.73;;;11.80;99.90;;;;;;5055484;28;20206;-79
2023/10/19 01:01:30;;;;;;;8.47;7.10;;;11.80;99.90;;;;;;5053776;28;20180;-79
2023/10/19 01:03:58;;;;;;;7.93;6.90;;;11.90;99.90;;;;;;5055315;28;20659;-80
2023/10/19 01:06:25;;;;;;;8.57;7.17;;;11.90;99.90;;;;;;5053751;28;20620;-80
2023/10/19 01:08:52;;;;;;;9.73;7.80;;;11.90;99.90;;;;;;5053670;28;20180;-80
2023/10/19 01:11:20;;;;;;;9.60;7.50;;;11.90;99.90;;;;;;5053826;28;20182;-80
2023/10/19 01:13:47;;;;;;;10.33;7.77;;;11.90;99.90;;;;;;5053344;28;20278;-80
2023/10/19 01:16:22;;;;;;;8.30;6.70;;;11.90;99.90;;;;;;5053457;28;20175;-80
2023/10/19 01:18:53;;;;;;;8.07;7.27;;;11.90;99.90;;;;;;5056281;28;20148;-79
2023/10/19 01:21:27;;;;;;;8.80;7.73;;;11.90;99.90;;;;;;5053434;28;20178;-80
2023/10/19 01:23:53;;;;;;;10.40;7.83;;;12.00;99.90;;;;;;5055041;28;20183;-80
2023/10/19 01:26:26;;;;;;;9.80;7.93;;;12.00;99.90;;;;;;5054805;28;20244;-80
2023/10/19 01:28:53;;;;;;;11.47;7.60;;;12.00;99.90;;;;;;5055170;28;20183;-80
2023/10/19 01:31:30;;;;;;;9.77;7.47;;;12.00;99.90;;;;;;5055298;28;20578;-80
2023/10/19 01:33:58;;;;;;;9.53;7.47;;;12.00;99.90;;;;;;5055375;28;20270;-80
2023/10/19 01:36:25;;;;;;;9.13;7.27;;;12.00;99.90;;;;;;5055448;28;20164;-80
2023/10/19 01:38:55;;;;;;;9.13;7.87;;;12.00;99.90;;;;;;5055611;28;20168;-80
2023/10/19 01:41:24;;;;;;;8.70;7.33;;;12.00;99.90;;;;;;5053614;28;20206;-80
2023/10/19 01:43:54;;;;;;;11.37;7.73;;;12.10;99.90;;;;;;5055129;28;20234;-80
2023/10/19 01:46:33;;;;;;;11.93;8.27;;;12.10;99.90;;;;;;5055726;28;20175;-80
2023/10/19 01:49:01;;;;;;;10.80;7.97;;;12.10;99.90;;;;;;5054387;28;20230;-80
2023/10/19 01:51:29;;;;;;;10.27;8.40;;;12.20;99.90;;;;;;5054170;28;20270;-80
2023/10/19 01:53:56;;;;;;;9.43;8.13;;;12.10;99.90;;;;;;5054715;28;20187;-80
2023/10/19 01:56:22;;;;;;;9.10;8.07;;;12.10;99.90;;;;;;5055184;28;20557;-80
2023/10/19 01:58:48;;;;;;;8.90;7.13;;;12.20;99.90;;;;;;5057324;28;20250;-80
2023/10/19 02:01:28;;;;;;;11.13;7.80;;;12.10;99.90;;;;;;5055801;28;20172;-80
2023/10/19 02:03:59;;;;;;;10.80;7.60;;;12.20;99.90;;;;;;5057345;28;20195;-79
2023/10/19 02:06:38;;;;;;;7.90;7.10;;;12.20;99.90;;;;;;5056054;28;20155;-80
2023/10/19 02:09:21;;;;;;;12.20;8.27;;;12.20;99.90;;;;;;5054052;28;20617;-80
2023/10/19 02:11:50;;;;;;;9.30;7.50;;;12.20;99.90;;;;;;5054962;28;20164;-80
2023/10/19 02:14:18;;;;;;;10.60;7.70;;;12.30;99.90;;;;;;5059064;28;20245;-80
2023/10/19 02:16:47;;;;;;;9.67;7.00;;;12.20;99.90;;;;;;5057226;28;20182;-80
2023/10/19 02:19:13;;;;;;;8.13;7.33;;;12.20;99.90;;;;;;5058482;28;20195;-80
2023/10/19 02:21:42;;;;;;;8.30;6.97;;;12.20;99.90;;;;;;5058741;28;20172;-79
2023/10/19 02:24:08;;;;;;;10.23;7.20;;;12.20;99.90;;;;;;5057223;28;20257;-80
2023/10/19 02:26:35;;;;;;;9.87;6.43;;;12.20;99.90;;;;;;5058637;28;20172;-80
2023/10/19 02:29:07;;;;;;;7.40;6.57;;;12.30;99.90;;;;;;5058196;28;20200;-80
2023/10/19 02:31:33;;;;;;;9.23;6.57;;;12.30;99.90;;;;;;5057144;28;20198;-80
2023/10/19 02:33:59;;;;;;;10.67;6.63;;;12.30;99.90;;;;;;5056727;28;20191;-80
2023/10/19 02:36:29;;;;;;;7.37;5.93;;;12.30;99.90;;;;;;5056602;28;20545;-80
2023/10/19 02:39:08;;;;;;;9.10;5.83;;;12.30;99.90;;;;;;5058326;28;20156;-80
2023/10/19 02:41:38;;;;;;;7.87;5.37;;;12.40;99.90;;;;;;5056518;28;20168;-79
2023/10/19 02:44:09;;;;;;;9.80;5.10;;;12.40;99.90;;;;;;5057087;28;20218;-80
2023/10/19 02:46:38;;;;;;;6.07;4.93;;;12.40;99.90;;;;;;5056741;28;20202;-80
2023/10/19 02:49:11;;;;;;;8.80;5.50;;;12.40;99.90;;;;;;5056832;28;20203;-80
2023/10/19 02:51:37;;;;;;;7.50;5.13;;;12.50;99.90;;;;;;5058000;28;20647;-80
2023/10/19 02:54:03;;;;;;;9.43;6.17;;;12.50;99.90;;;;;;5057878;28;20657;-80
2023/10/19 02:56:31;;;;;;;9.67;6.20;;;12.70;99.90;;;;;;5057472;28;20175;-80
2023/10/19 02:59:03;;;;;;;7.57;6.00;;;12.60;99.90;;;;;;5058596;28;20174;-80
2023/10/19 03:01:36;;;;;;;12.67;5.90;;;12.60;99.90;;;;;;5057257;28;20596;-80
2023/10/19 03:04:04;;;;;;;6.67;5.90;;;12.60;99.90;;;;;;5058258;28;20195;-80
2023/10/19 03:06:33;;;;;;;8.03;5.80;;;12.60;99.90;;;;;;5058358;28;20194;-80
2023/10/19 03:09:04;;;;;;;7.77;5.83;;;12.60;99.90;;;;;;5057561;28;20200;-81
2023/10/19 03:11:34;;;;;;;7.57;5.17;;;12.60;99.90;;;;;;5059097;28;20597;-80
2023/10/19 03:14:01;;;;;;;6.23;5.00;;;12.60;99.90;;;;;;5057649;28;20207;-80
2023/10/19 03:16:30;;;;;;;7.33;5.00;;;12.70;99.90;;;;;;5055767;28;20190;-79
2023/10/19 03:18:56;;;;;;;6.40;5.33;;;12.70;99.90;;;;;;5056109;28;20532;-80
2023/10/19 03:21:26;;;;;;;6.20;5.10;;;12.70;99.90;;;;;;5056956;28;20172;-80
2023/10/19 03:23:53;;;;;;;7.27;5.13;;;12.70;99.90;;;;;;5055572;28;20203;-80
2023/10/19 03:28:54;;;;;;;8.57;5.03;;;12.70;99.90;;;;;;5057111;28;20306;-80
2023/10/19 03:31:26;;;;;;;11.50;6.63;;;12.70;99.90;;;;;;5057178;28;20239;-80
2023/10/19 03:33:55;;;;;;;6.10;5.00;;;12.70;99.90;;;;;;5057151;28;20219;-80
2023/10/19 03:36:25;;;;;;;7.57;4.47;;;12.70;99.90;;;;;;5057144;28;20191;-80
2023/10/19 03:38:53;;;;;;;8.73;5.00;;;12.70;99.90;;;;;;5057014;28;20168;-80
2023/10/19 03:41:25;;;;;;;5.60;4.60;;;12.70;99.90;;;;;;5055273;28;20171;-80
2023/10/19 03:43:54;;;;;;;5.53;4.77;;;12.70;99.90;;;;;;5055914;28;20191;-80
2023/10/19 03:46:30;;;;;;;5.53;4.80;;;12.80;99.90;;;;;;5056764;28;20179;-80
2023/10/19 03:48:59;;;;;;;6.10;4.63;;;12.70;99.90;;;;;;5055805;28;20205;-80
2023/10/19 03:51:39;;;;;;;6.40;4.90;;;12.70;99.90;;;;;;5055443;28;20183;-80
2023/10/19 03:54:13;;;;;;;7.70;4.77;;;12.70;99.90;;;;;;5056561;28;20222;-80
2023/10/19 03:56:38;;;;;;;5.63;4.00;;;12.70;99.90;;;;;;5057564;28;20167;-80
2023/10/19 03:59:06;;;;;;;6.57;4.07;;;12.80;99.90;;;;;;5055824;28;20193;-80
2023/10/19 04:01:31;;;;;;;5.57;3.90;;;12.80;99.90;;;;;;5056048;28;20251;-80
2023/10/19 04:03:57;;;;;;;6.13;3.67;;;12.80;99.90;;;;;;5056059;28;20627;-80
2023/10/19 04:06:23;;;;;;;8.27;3.97;;;12.80;99.90;;;;;;5055603;28;20183;-80
2023/10/19 04:08:50;;;;;;;9.20;4.40;;;12.80;99.90;;;;;;5057482;28;20172;-80
2023/10/19 04:11:26;;;;;;;7.80;4.30;;;12.90;99.90;;;;;;5055694;28;20175;-80
2023/10/19 04:13:53;;;;;;;5.27;3.70;;;12.90;99.90;;;;;;5056028;28;20363;-80
2023/10/19 04:16:20;;;;;;;5.53;3.80;;;12.90;99.90;;;;;;5055856;28;20175;-80
2023/10/19 04:18:46;;;;;;;5.70;3.63;;;12.90;99.90;;;;;;5055345;28;20596;-80
2023/10/19 04:21:11;;;;;;;7.27;3.77;;;12.90;99.90;;;;;;5056265;28;20326;-80
2023/10/19 04:23:37;;;;;;;5.77;3.67;;;12.80;99.90;;;;;;5057120;28;20658;-79
2023/10/19 04:26:10;;;;;;;5.93;3.77;;;12.90;99.90;;;;;;5055250;28;20176;-80
2023/10/19 04:28:49;;;;;;;5.33;3.47;;;12.90;99.90;;;;;;5055056;28;20318;-80
2023/10/19 04:31:15;;;;;;;4.10;3.70;;;12.80;99.90;;;;;;5057070;28;20614;-79
2023/10/19 04:33:42;;;;;;;5.67;3.63;;;12.90;99.90;;;;;;5054967;28;20275;-80
2023/10/19 04:36:11;;;;;;;9.60;3.73;;;12.80;99.90;;;;;;5056396;28;20164;-81
2023/10/19 04:38:36;;;;;;;6.87;3.57;;;12.80;99.90;;;;;;5057002;28;20616;-81
2023/10/19 04:41:08;;;;;;;8.87;3.53;;;12.90;99.90;;;;;;5056896;28;20206;-80
2023/10/19 04:43:36;;;;;;;5.20;3.93;;;12.90;99.90;;;;;;5056968;28;20294;-81
2023/10/19 04:46:08;;;;;;;7.10;3.63;;;12.90;99.90;;;;;;5056593;28;20270;-79
2023/10/19 04:48:35;;;;;;;5.10;3.23;;;12.90;99.90;;;;;;5057271;28;20575;-80
2023/10/19 04:51:01;;;;;;;4.77;3.27;;;12.90;99.90;;;;;;5055865;28;20547;-80
2023/10/19 04:53:26;;;;;;;5.67;3.50;;;13.00;99.90;;;;;;5053946;28;20207;-80
2023/10/19 04:55:52;;;;;;;7.03;3.90;;;12.90;99.90;;;;;;5054410;28;20175;-80
2023/10/19 04:58:17;;;;;;;7.10;3.30;;;12.90;99.90;;;;;;5054538;28;20167;-80
2023/10/19 05:00:43;;;;;;;7.13;3.50;;;12.80;99.90;;;;;;5054512;28;20513;-80
2023/10/19 05:03:09;;;;;;;6.33;3.20;;;12.90;99.90;;;;;;5054330;28;20206;-80
2023/10/19 05:05:35;;;;;;;7.93;3.17;;;12.80;99.90;;;;;;5055681;28;20176;-80
2023/10/19 05:08:01;;;;;;;5.70;3.33;;;12.80;99.90;;;;;;5055814;28;20605;-80
2023/10/19 05:10:26;;;;;;;8.70;3.67;;;12.80;99.90;;;;;;5053989;28;20251;-80
2023/10/19 05:12:54;;;;;;;4.80;3.50;;;12.80;99.90;;;;;;5054284;28;20280;-80
2023/10/19 05:15:20;;;;;;;5.70;3.70;;;12.90;99.90;;;;;;5055983;28;20542;-80
2023/10/19 05:17:45;;;;;;;5.13;3.77;;;12.90;99.90;;;;;;5054099;28;20176;-80
2023/10/19 05:20:11;;;;;;;6.17;4.00;;;12.90;99.90;;;;;;5054248;28;20176;-80
2023/10/19 05:22:37;;;;;;;5.60;3.83;;;12.90;99.90;;;;;;5055672;28;20195;-79
2023/10/19 05:25:03;;;;;;;7.03;4.60;;;12.90;99.90;;;;;;5054589;28;20190;-80
2023/10/19 05:27:29;;;;;;;8.20;4.37;;;12.90;99.90;;;;;;5054923;28;20226;-80
2023/10/19 05:29:55;;;;;;;6.77;4.20;;;12.90;99.90;;;;;;5056001;28;20207;-80
2023/10/19 05:32:20;;;;;;;8.07;3.97;;;12.90;99.90;;;;;;5055555;28;20613;-80
2023/10/19 05:34:47;;;;;;;8.10;4.70;;;12.90;99.90;;;;;;5055734;28;20178;-80
2023/10/19 05:37:12;;;;;;;7.63;4.10;;;12.90;99.90;;;;;;5054456;28;20182;-80
2023/10/19 05:39:38;;;;;;;5.93;4.03;;;12.90;99.90;;;;;;5053797;28;20210;-79
2023/10/19 05:42:04;;;;;;;8.10;4.40;;;12.90;99.90;;;;;;5053719;28;20179;-80
2023/10/19 05:44:30;;;;;;;7.50;4.77;;;12.90;99.90;;;;;;5055380;28;20177;-79
2023/10/19 05:46:56;;;;;;;8.23;4.40;;;12.80;99.90;;;;;;5058836;28;20175;-80
2023/10/19 05:49:23;;;;;;;6.50;4.30;;;12.90;99.90;;;;;;5062284;28;20289;-80
2023/10/19 05:51:49;;;;;;;9.50;4.30;;;12.80;99.90;;;;;;5067909;28;20202;-80
2023/10/19 05:54:15;;;;;;;7.63;4.77;;;12.90;99.90;;;;;;5069119;28;20226;-80
2023/10/19 05:56:41;;;;;;;8.27;4.90;;;12.90;99.90;;;;;;5063618;28;20553;-80
2023/10/19 05:59:07;;;;;;;8.93;5.87;;;12.90;99.90;;;;;;5060045;28;20180;-80
2023/10/19 06:01:33;;;;;;;8.63;5.53;;;12.90;99.90;;;;;;5059918;28;20218;-80
2023/10/19 06:03:58;;;;;;;6.93;4.70;;;12.90;99.90;;;;;;5059464;28;20191;-80
2023/10/19 06:06:24;;;;;;;8.27;4.60;;;12.90;99.90;;;;;;5058743;28;20180;-80
2023/10/19 06:08:53;;;;;;;6.97;4.50;;;12.90;99.90;;;;;;5059647;28;20562;-80
2023/10/19 06:11:19;;;;;;;7.87;4.20;;;12.90;99.90;;;;;;5059034;28;20171;-79
2023/10/19 06:13:44;;;;;;;6.00;4.20;;;12.90;99.90;;;;;;5059207;28;20746;-80
2023/10/19 06:16:10;;;;;;;6.40;4.03;;;12.90;99.90;;;;;;5057994;28;20190;-80
2023/10/19 06:18:35;;;;;;;5.17;4.37;;;12.90;99.90;;;;;;5059281;28;20558;-80
2023/10/19 06:21:01;;;;;;;6.93;4.00;;;12.90;99.90;;;;;;5059268;28;20186;-80
2023/10/19 06:23:26;;;;;;;8.23;4.57;;;12.90;99.90;;;;;;5059258;28;20206;-80
2023/10/19 06:25:52;;;;;;;6.80;3.60;;;12.90;99.90;;;;;;5057483;28;20195;-80
2023/10/19 06:28:17;;;;;;;6.33;4.23;;;12.90;99.90;;;;;;5057321;28;20183;-80
2023/10/19 06:30:45;;;;;;;6.47;3.70;;;12.90;99.90;;;;;;5059059;28;20191;-80
2023/10/19 06:33:10;;;;;;;7.23;3.87;;;12.90;99.90;;;;;;5058895;28;20199;-80
2023/10/19 06:35:37;;;;;;;7.17;3.93;;;13.00;99.90;;;;;;5058943;28;20540;-80
2023/10/19 06:38:08;;;;;;;5.67;4.03;;;12.90;99.90;;;;;;5057387;28;20176;-80
2023/10/19 06:40:36;;;;;;;7.03;3.73;;;12.90;99.90;;;;;;5057139;28;20172;-79
2023/10/19 06:43:02;;;;;;;8.60;3.70;;;12.90;99.90;;;;;;5057892;28;20192;-80
2023/10/19 06:45:29;;;;;;;8.47;3.87;;;13.00;99.90;;;;;;5056583;28;20191;-80
2023/10/19 06:47:55;;;;;;;5.53;3.77;;;13.00;99.90;;;;;;5058109;28;20172;-80
2023/10/19 06:50:22;;;;;;;9.57;3.90;;;13.00;99.90;;;;;;5056714;28;20599;-80
2023/10/19 06:52:48;;;;;;;9.33;4.30;;;13.00;99.90;;;;;;5058729;28;20191;-80
2023/10/19 06:55:16;;;;;;;11.87;4.13;;;13.00;99.90;;;;;;5058511;28;20175;-80
2023/10/19 06:57:47;;;;;;;5.80;3.90;;;13.00;99.90;;;;;;5055913;28;20176;-80
2023/10/19 07:00:26;;;;;;;8.33;3.63;;;13.00;99.90;;;;;;5059241;28;20207;-80
2023/10/19 07:02:54;;;;;;;7.13;3.80;;;13.10;99.90;;;;;;5056992;28;20573;-79
2023/10/19 07:05:29;;;;;;;6.17;4.07;;;13.10;99.90;;;;;;5058032;28;20174;-80
2023/10/19 07:07:56;;;;;;;8.10;4.13;;;13.10;99.90;;;;;;5058605;28;20574;-80
2023/10/19 07:10:23;;;;;;;6.80;4.60;;;13.10;99.90;;;;;;5058237;28;20199;-80
2023/10/19 07:12:51;;;;;;;8.07;4.40;;;13.20;99.90;;;;;;5056418;28;20191;-80
2023/10/19 07:15:18;;;;;;;7.60;4.70;;;13.20;99.90;;;;;;5056361;28;20183;-80
2023/10/19 07:17:45;;;;;;;6.03;4.03;;;13.20;99.90;;;;;;5057593;28;20164;-80
2023/10/19 07:20:25;;;;;;;14.27;4.80;;;13.20;99.90;;;;;;5056709;28;20550;-80
2023/10/19 07:22:51;;;;;;;9.90;4.20;;;13.20;99.90;;;;;;5057566;28;20192;-80
2023/10/19 07:25:20;;;;;;;9.37;4.80;;;13.20;99.90;;;;;;5057009;28;20197;-80
2023/10/19 07:27:47;;;;;;;9.60;4.43;;;13.30;99.90;;;;;;5058215;28;20175;-80
2023/10/19 07:30:15;;;;;;;10.27;4.50;;;13.30;99.90;;;;;;5057745;28;20210;-80
2023/10/19 07:32:41;;;;;;;7.97;4.33;;;13.30;99.90;;;;;;5057578;28;20191;-80
2023/10/19 07:35:06;;;;;;;8.77;4.67;;;13.30;99.90;;;;;;5060262;28;20254;-80
2023/10/19 07:37:32;;;;;;;5.60;4.57;;;13.30;99.90;;;;;;5057572;28;20164;-80
2023/10/19 07:39:57;;;;;;;6.97;4.27;;;13.30;99.90;;;;;;5056386;28;20180;-79
2023/10/19 07:42:25;;;;;;;7.70;4.47;;;13.40;99.90;;;;;;5056382;28;20210;-80
2023/10/19 07:44:51;;;;;;;6.77;4.60;;;13.40;99.90;;;;;;5058417;28;20227;-80
2023/10/19 07:47:16;;;;;;;8.03;4.40;;;13.40;99.90;;;;;;5057215;28;20535;-80
2023/10/19 07:49:43;;;;;;;5.23;4.50;;;13.40;99.90;;;;;;5057839;28;20200;-80
2023/10/19 07:52:10;;;;;;;6.63;4.77;;;13.50;99.90;;;;;;5055988;28;20274;-80
2023/10/19 07:54:36;;;;;;;7.67;4.40;;;13.50;99.90;;;;;;5056811;28;20237;-80
2023/10/19 07:57:05;;;;;;;9.30;4.90;;;13.50;99.90;;;;;;5057326;28;20178;-80
2023/10/19 07:59:34;;;;;;;6.57;4.27;;;13.50;99.90;;;;;;5057473;28;20171;-80
2023/10/19 08:02:04;;;;;;;6.80;4.60;;;13.50;99.90;;;;;;5057955;28;20171;-79
2023/10/19 08:04:30;;;;;;;9.03;5.10;;;13.60;99.90;;;;;;5057757;28;20531;-79
2023/10/19 08:06:59;;;;;;;8.37;4.87;;;13.60;99.90;;;;;;5058692;28;20171;-80
2023/10/19 08:09:31;;;;;;;8.10;4.63;;;13.60;99.90;;;;;;5062170;28;20202;-79
2023/10/19 08:11:58;;;;;;;8.07;4.30;;;13.60;99.90;;;;;;5058507;28;20144;-80
2023/10/19 08:14:25;;;;;;;6.77;4.57;;;13.70;99.90;;;;;;5057195;28;20266;-80
2023/10/19 08:16:52;;;;;;;10.73;4.63;;;13.70;99.90;;;;;;5055285;28;20710;-80
2023/10/19 08:19:18;;;;;;;6.87;4.30;;;13.70;99.90;;;;;;5056457;28;20269;-80
2023/10/19 08:21:44;;;;;;;6.30;4.27;;;13.80;99.90;;;;;;5055356;28;20716;-80
2023/10/19 08:24:13;;;;;;;6.00;4.40;;;13.80;99.90;;;;;;5055377;28;20204;-80
2023/10/19 08:26:42;;;;;;;7.43;4.50;;;13.80;99.90;;;;;;5055827;28;20651;-80
2023/10/19 08:29:12;;;;;;;7.50;4.83;;;13.90;99.90;;;;;;5056565;28;20206;-80
2023/10/19 08:31:39;;;;;;;7.23;4.03;;;13.90;99.90;;;;;;5055154;28;20172;-80
2023/10/19 08:34:05;;;;;;;10.97;4.43;;;14.00;99.90;;;;;;5056204;28;20195;-80
2023/10/19 08:36:31;;;;;;;10.03;4.63;;;14.00;99.90;;;;;;5054884;28;20245;-80
2023/10/19 08:38:56;;;;;;;7.53;4.73;;;14.10;99.90;;;;;;5056624;28;20274;-79
2023/10/19 08:41:23;;;;;;;8.13;4.50;;;14.10;99.90;;;;;;5055943;28;20533;-80
2023/10/19 08:43:50;;;;;;;9.10;4.87;;;14.10;99.90;;;;;;5056298;28;20202;-80
2023/10/19 08:46:16;;;;;;;7.37;3.90;;;14.20;99.90;;;;;;5056262;28;20175;-80
2023/10/19 08:48:41;;;;;;;9.47;4.30;;;14.20;99.90;;;;;;5054503;28;20172;-80
2023/10/19 08:51:09;;;;;;;6.27;3.77;;;14.30;99.90;;;;;;5054428;28;20203;-79
2023/10/19 08:53:40;;;;;;;6.50;4.00;;;14.30;99.90;;;;;;5056428;28;20184;-80
2023/10/19 08:56:07;;;;;;;11.27;4.27;;;14.30;99.90;;;;;;5056303;28;20156;-79
2023/10/19 08:58:33;;;;;;;7.70;3.80;;;14.40;99.90;;;;;;5056331;28;20167;-80
2023/10/19 09:01:06;;;;;;;9.73;4.00;;;14.40;99.90;;;;;;5056090;28;20267;-81
2023/10/19 09:03:32;;;;;;;8.90;3.80;;;14.50;99.90;;;;;;5056031;28;20269;-80
2023/10/19 09:06:01;;;;;;;6.30;3.50;;;14.50;99.90;;;;;;5054622;28;20224;-80
2023/10/19 09:08:38;;;;;;;7.93;3.53;;;14.60;99.90;;;;;;5056375;28;20183;-81
2023/10/19 09:11:09;;;;;;;7.70;3.30;;;14.70;99.90;;;;;;5055949;28;20190;-80
2023/10/19 09:13:50;;;;;;;5.37;3.57;;;14.80;99.90;;;;;;5055985;28;20266;-80
2023/10/19 09:16:18;;;;;;;5.33;3.10;;;14.90;99.90;;;;;;5054443;28;20277;-80
2023/10/19 09:18:44;;;;;;;4.47;3.00;;;15.00;99.90;;;;;;5056120;28;20194;-80
2023/10/19 09:21:23;;;;;;;11.50;3.63;;;15.10;99.90;;;;;;5056093;28;20176;-80
2023/10/19 09:23:50;;;;;;;6.47;3.20;;;15.10;99.90;;;;;;5054947;28;20199;-81
2023/10/19 09:26:16;;;;;;;6.60;3.27;;;15.20;99.90;;;;;;5056202;28;20182;-80
2023/10/19 09:28:42;;;;;;;11.17;3.23;;;15.30;99.90;;;;;;5055462;28;20184;-80
2023/10/19 09:31:09;;;;;;;12.60;3.20;;;15.40;99.90;;;;;;5053930;28;20219;-79
2023/10/19 09:33:35;;;;;;;7.17;3.00;;;15.40;99.90;;;;;;5055585;28;20191;-80
2023/10/19 09:36:04;;;;;;;7.87;3.10;;;15.50;99.90;;;;;;5056201;28;20298;-80
2023/10/19 09:38:30;;;;;;;6.23;2.87;;;15.50;99.90;;;;;;5055754;28;20221;-80
2023/10/19 09:40:57;;;;;;;7.40;2.90;;;15.60;99.90;;;;;;5055677;28;20180;-80
2023/10/19 09:43:33;;;;;;;9.30;2.80;;;15.60;99.90;;;;;;5055518;28;20690;-80
2023/10/19 09:46:01;;;;;;;8.37;2.67;;;15.70;99.90;;;;;;5055543;28;20224;-81
2023/10/19 09:48:28;;;;;;;9.23;2.97;;;15.60;99.90;;;;;;5055887;28;20184;-80
2023/10/19 09:50:55;;;;;;;6.00;2.50;;;15.70;99.90;;;;;;5055763;28;20195;-80
2023/10/19 09:53:26;;;;;;;8.47;2.37;;;15.70;99.90;;;;;;5056291;28;20215;-80
2023/10/19 09:55:56;;;;;;;10.20;2.50;;;15.70;99.90;;;;;;5055694;28;20206;-80
2023/10/19 09:58:29;;;;;;;11.80;2.57;;;15.80;99.90;;;;;;5054018;28;20233;-80
2023/10/19 10:00:57;;;;;;;4.43;2.00;;;15.80;99.90;;;;;;5056890;28;20186;-80
2023/10/19 10:03:57;;;;;;;11.80;2.50;;;15.80;99.90;;;;;;5055050;28;20199;-80
2023/10/19 10:06:30;;;;;;;8.47;2.63;;;15.70;99.90;;;;;;5054829;28;20531;-81
2023/10/19 10:08:59;;;;;;;7.53;2.93;;;15.90;99.90;;;;;;5056903;28;20183;-80
2023/10/19 10:11:26;;;;;;;7.60;2.20;;;16.00;99.90;;;;;;5055189;28;20697;-80
2023/10/19 10:13:54;;;;;;;10.40;2.50;;;16.00;99.90;;;;;;5056470;28;20241;-80
2023/10/19 10:16:26;;;;;;;9.90;2.17;;;16.10;99.90;;;;;;5059006;28;20199;-81
2023/10/19 10:18:55;;;;;;;7.73;2.13;;;16.10;99.90;;;;;;5061368;28;20157;-80
2023/10/19 10:21:24;;;;;;;9.47;2.77;;;16.20;99.90;;;;;;5065565;28;20261;-80
2023/10/19 10:23:52;;;;;;;8.60;2.80;;;16.30;99.90;;;;;;5065777;28;20718;-80
2023/10/19 10:26:19;;;;;;;9.20;2.13;;;16.40;99.90;;;;;;5058210;28;20175;-80
2023/10/19 10:29:09;;;;;;;8.30;2.20;;;16.50;99.90;;;;;;5053800;28;20231;-80
2023/10/19 10:31:40;;;;;;;5.63;2.07;;;16.50;99.90;;;;;;5054251;28;20175;-80
2023/10/19 10:34:09;;;;;;;9.37;2.20;;;16.60;99.90;;;;;;5056829;28;20283;-81
2023/10/19 10:36:58;;;;;;;7.13;2.17;;;16.70;99.90;;;;;;5057602;28;20187;-81
2023/10/19 10:39:25;;;;;;;9.57;2.13;;;16.80;99.90;;;;;;5056893;28;20176;-81
2023/10/19 10:42:03;;;;;;;6.30;1.93;;;16.80;99.90;;;;;;5057550;28;20270;-80
2023/10/19 10:44:39;;;;;;;3.90;1.90;;;16.90;99.90;;;;;;5057267;28;20198;-81
2023/10/19 10:47:21;;;;;;;10.90;2.30;;;17.00;99.90;;;;;;5058554;28;20263;-81
2023/10/19 10:49:48;;;;;;;7.73;2.03;;;17.00;99.90;;;;;;5057292;28;20278;-80
2023/10/19 10:52:25;;;;;;;9.27;2.63;;;17.00;99.90;;;;;;5058442;28;20282;-80
2023/10/19 10:54:52;;;;;;;9.30;1.97;;;17.00;99.90;;;;;;5058138;28;20562;-81
2023/10/19 10:57:19;;;;;;;8.57;2.20;;;17.00;99.90;;;;;;5056537;28;20711;-79
2023/10/19 10:59:45;;;;;;;9.93;2.07;;;17.00;99.90;;;;;;5057680;28;20179;-81
2023/10/19 11:02:19;;;;;;;5.73;1.97;;;17.00;99.90;;;;;;5056123;28;20627;-81
2023/10/19 11:04:45;;;;;;;9.57;2.27;;;17.00;99.90;;;;;;5056393;28;20184;-80
2023/10/19 11:07:18;;;;;;;10.27;2.00;;;17.10;99.90;;;;;;5058255;28;20233;-80
2023/10/19 11:09:45;;;;;;;8.97;2.30;;;17.20;99.90;;;;;;5056330;28;20220;-81
2023/10/19 11:12:19;;;;;;;10.97;2.37;;;17.30;99.90;;;;;;5057359;28;20598;-80
2023/10/19 11:15:09;;;;;;;8.10;2.13;;;17.30;99.90;;;;;;5056467;28;20159;-81
2023/10/19 11:17:42;;;;;;;7.10;1.80;;;17.40;99.90;;;;;;5058212;28;20163;-80
2023/10/19 11:20:13;;;;;;;9.93;2.50;;;17.30;99.90;;;;;;5058052;28;20214;-80
2023/10/19 11:22:48;;;;;;;11.87;2.27;;;17.40;99.90;;;;;;5057980;28;20515;-80
2023/10/19 11:25:19;;;;;;;9.17;2.20;;;17.50;99.90;;;;;;5057928;28;20183;-80
2023/10/19 11:27:44;;;;;;;7.03;2.13;;;17.50;99.90;;;;;;5057841;28;20180;-81
2023/10/19 11:30:11;;;;;;;8.13;2.03;;;17.60;99.90;;;;;;5057685;28;20222;-81
2023/10/19 11:32:39;;;;;;;10.10;2.43;;;17.60;99.90;;;;;;5056692;28;20227;-80
2023/10/19 11:35:09;;;;;;;10.37;2.10;;;17.60;99.90;;;;;;5056519;28;20182;-81
2023/10/19 11:37:52;;;;;;;4.90;2.07;;;17.50;99.90;;;;;;5056005;28;20175;-81
2023/10/19 11:40:19;;;;;;;9.23;2.70;;;17.50;99.90;;;;;;5057551;28;20179;-81
2023/10/19 11:42:45;;;;;;;6.30;1.83;;;17.40;99.90;;;;;;5057477;28;20266;-81
2023/10/19 11:45:11;;;;;;;11.73;2.10;;;17.40;99.90;;;;;;5056927;28;20175;-80
2023/10/19 11:47:37;;;;;;;10.97;1.90;;;17.30;99.90;;;;;;5055562;28;20212;-80
2023/10/19 11:50:03;;;;;;;6.67;1.90;;;17.30;99.90;;;;;;5057311;28;20199;-81
2023/10/19 11:52:30;;;;;;;8.00;1.80;;;17.30;99.90;;;;;;5056381;28;20571;-80
2023/10/19 11:54:56;;;;;;;7.50;1.73;;;17.30;99.90;;;;;;5055567;28;20263;-81
2023/10/19 11:57:21;;;;;;;6.13;1.80;;;17.30;99.90;;;;;;5057082;28;20225;-81
2023/10/19 11:59:52;;;;;;;10.30;1.73;;;17.30;99.90;;;;;;5055843;28;20179;-80
2023/10/19 12:02:18;;;;;;;6.33;2.43;;;17.30;99.90;;;;;;5057531;28;20207;-81
2023/10/19 12:04:45;;;;;;;12.40;2.50;;;17.40;99.90;;;;;;5057448;28;20175;-81
2023/10/19 12:07:11;;;;;;;7.50;2.17;;;17.40;99.90;;;;;;5055916;28;20262;-81
2023/10/19 12:09:36;;;;;;;7.60;1.93;;;17.40;99.90;;;;;;5057255;28;20238;-80
2023/10/19 12:12:05;;;;;;;11.43;2.30;;;17.50;99.90;;;;;;5055423;28;20187;-81
2023/10/19 12:14:34;;;;;;;10.67;2.00;;;17.50;99.90;;;;;;5055302;28;20251;-80
2023/10/19 12:17:01;;;;;;;8.20;2.10;;;17.50;99.90;;;;;;5056776;28;20209;-80
2023/10/19 12:19:30;;;;;;;8.67;2.17;;;17.50;99.90;;;;;;5057680;28;20244;-80
2023/10/19 12:21:56;;;;;;;10.07;2.03;;;17.60;99.90;;;;;;5056800;28;20187;-81
2023/10/19 12:24:23;;;;;;;7.30;1.73;;;17.60;99.90;;;;;;5056459;28;20183;-80
2023/10/19 12:26:48;;;;;;;7.63;1.70;;;17.60;99.90;;;;;;5056748;28;20183;-80
2023/10/19 12:29:17;;;;;;;9.77;2.57;;;17.60;99.90;;;;;;5054750;28;20192;-80
2023/10/19 12:31:42;;;;;;;7.17;1.87;;;17.60;99.90;;;;;;5055194;28;20218;-80
2023/10/19 12:34:11;;;;;;;6.17;1.77;;;17.50;99.90;;;;;;5055428;28;20203;-80
2023/10/19 12:36:37;;;;;;;8.47;2.30;;;17.50;99.90;;;;;;5054573;28;20690;-80
2023/10/19 12:39:05;;;;;;;6.93;2.03;;;17.50;99.90;;;;;;5055627;28;20179;-80
2023/10/19 12:41:31;;;;;;;7.10;1.60;;;17.50;99.90;;;;;;5056371;28;20208;-80
2023/10/19 12:43:57;;;;;;;6.83;2.00;;;17.50;99.90;;;;;;5056432;28;20215;-80
2023/10/19 12:46:29;;;;;;;6.10;2.00;;;17.50;99.90;;;;;;5056673;28;20229;-80
2023/10/19 12:48:56;;;;;;;8.87;2.00;;;17.50;99.90;;;;;;5055256;28;20211;-81
2023/10/19 12:51:25;;;;;;;8.67;1.57;;;17.40;99.90;;;;;;5056473;28;20203;-80
2023/10/19 12:53:54;;;;;;;9.50;2.17;;;17.40;99.90;;;;;;5056177;28;20202;-80
2023/10/19 12:56:21;;;;;;;9.00;1.70;;;17.40;99.90;;;;;;5055764;28;20251;-80
2023/10/19 12:58:48;;;;;;;6.63;1.80;;;17.30;99.90;;;;;;5056434;28;20262;-81
2023/10/19 13:01:17;;;;;;;6.20;1.80;;;17.30;99.90;;;;;;5057888;28;20254;-80
2023/10/19 13:03:45;;;;;;;5.50;1.43;;;17.30;99.90;;;;;;5059036;28;20583;-81
2023/10/19 13:06:12;;;;;;;5.20;1.50;;;17.30;99.90;;;;;;5055734;28;20202;-80
2023/10/19 13:08:40;;;;;;;5.33;2.13;;;17.30;99.90;;;;;;5054577;28;20175;-80